createdAt,value
2022-11-08T00:01:11.498Z,96.40
2022-11-08T00:03:38.300Z,96.70
2022-11-08T00:06:23.347Z,96.50
2022-11-08T00:09:08.393Z,96.50
2022-11-08T00:11:53.455Z,96.70
2022-11-08T00:14:20.192Z,96.70
2022-11-08T00:16:46.873Z,96.50
2022-11-08T00:19:13.559Z,96.60
2022-11-08T00:21:40.282Z,96.90
2022-11-08T00:24:06.997Z,96.80
2022-11-08T00:26:33.672Z,96.50
2022-11-08T00:29:00.417Z,96.60
2022-11-08T00:31:27.102Z,96.80
2022-11-08T00:33:53.791Z,96.50
2022-11-08T00:36:20.633Z,96.90
2022-11-08T00:38:47.414Z,96.50
2022-11-08T00:41:14.153Z,96.60
2022-11-08T00:43:40.972Z,96.70
2022-11-08T00:46:07.939Z,96.90
2022-11-08T00:48:34.649Z,96.60
2022-11-08T00:51:05.160Z,96.70
2022-11-08T00:53:32.025Z,96.60
2022-11-08T00:55:59.544Z,96.70
2022-11-08T00:58:27.844Z,96.30
2022-11-08T01:00:55.461Z,96.70
2022-11-08T01:03:23.786Z,96.60
2022-11-08T01:05:51.718Z,96.60
2022-11-08T01:08:19.671Z,96.50
2022-11-08T01:10:48.796Z,96.50
2022-11-08T01:13:15.852Z,96.50
2022-11-08T01:15:43.298Z,96.50
2022-11-08T01:18:10.821Z,96.70
2022-11-08T01:20:38.301Z,96.40
2022-11-08T01:23:05.113Z,96.80
2022-11-08T01:25:31.963Z,96.60
2022-11-08T01:27:58.691Z,96.40
2022-11-08T01:30:25.394Z,96.30
2022-11-08T01:32:52.098Z,96.70
2022-11-08T01:35:18.831Z,96.50
2022-11-08T01:37:45.517Z,96.30
2022-11-08T01:40:12.400Z,96.40
2022-11-08T01:42:39.298Z,96.40
2022-11-08T01:45:07.699Z,96.70
2022-11-08T01:47:34.513Z,96.70
2022-11-08T01:50:07.437Z,96.60
2022-11-08T01:52:37.547Z,96.70
2022-11-08T01:55:08.179Z,96.50
2022-11-08T01:57:38.130Z,96.50
2022-11-08T02:00:06.860Z,96.80
2022-11-08T02:02:34.848Z,96.50
2022-11-08T02:05:02.912Z,96.70
2022-11-08T02:07:30.845Z,96.60
2022-11-08T02:09:57.648Z,96.70
2022-11-08T02:12:25.354Z,96.70
2022-11-08T02:14:52.106Z,96.60
2022-11-08T02:17:18.919Z,96.70
2022-11-08T02:19:46.696Z,96.60
2022-11-08T02:22:17.424Z,96.60
2022-11-08T02:24:44.237Z,96.70
2022-11-08T02:27:12.032Z,96.30
2022-11-08T02:29:38.732Z,96.60
2022-11-08T02:32:06.539Z,96.50
2022-11-08T02:34:40.883Z,96.70
2022-11-08T02:37:07.946Z,96.70
2022-11-08T02:39:34.688Z,96.70
2022-11-08T02:42:04.937Z,96.80
2022-11-08T02:44:31.796Z,96.60
2022-11-08T02:46:58.518Z,96.60
2022-11-08T02:49:25.300Z,96.80
2022-11-08T02:51:52.777Z,96.60
2022-11-08T02:54:19.538Z,96.70
2022-11-08T02:56:46.228Z,96.70
2022-11-08T02:59:12.940Z,96.70
2022-11-08T03:01:39.867Z,96.60
2022-11-08T03:04:06.660Z,96.70
2022-11-08T03:06:33.474Z,96.70
2022-11-08T03:09:00.197Z,96.60
2022-11-08T03:11:26.869Z,96.80
2022-11-08T03:13:53.596Z,96.70
2022-11-08T03:16:20.302Z,96.60
2022-11-08T03:18:46.982Z,96.60
2022-11-08T03:21:13.848Z,96.80
2022-11-08T03:23:40.774Z,96.80
2022-11-08T03:26:07.458Z,96.60
2022-11-08T03:28:34.249Z,96.60
2022-11-08T03:31:01.320Z,96.60
2022-11-08T03:33:28.003Z,96.90
2022-11-08T03:35:54.878Z,96.70
2022-11-08T03:38:21.798Z,96.80
2022-11-08T03:40:48.523Z,96.60
2022-11-08T03:43:15.383Z,96.90
2022-11-08T03:45:42.211Z,96.80
2022-11-08T03:48:08.936Z,96.50
2022-11-08T03:50:35.783Z,96.70
2022-11-08T03:53:02.856Z,96.50
2022-11-08T03:55:29.629Z,96.50
2022-11-08T03:57:56.583Z,96.60
2022-11-08T04:00:25.064Z,96.70
2022-11-08T04:02:52.243Z,96.80
2022-11-08T04:05:19.138Z,96.70
2022-11-08T04:07:45.884Z,96.50
2022-11-08T04:10:12.823Z,96.60
2022-11-08T04:12:59.162Z,96.60
2022-11-08T04:15:26.119Z,96.60
2022-11-08T04:18:12.315Z,96.90
2022-11-08T04:21:04.536Z,96.60
2022-11-08T04:23:31.842Z,96.70
2022-11-08T04:25:59.826Z,96.70
2022-11-08T04:28:27.465Z,96.60
2022-11-08T04:30:55.185Z,96.50
2022-11-08T04:33:22.248Z,96.90
2022-11-08T04:35:49.096Z,96.90
2022-11-08T04:38:16.669Z,96.70
2022-11-08T04:40:43.803Z,96.90
2022-11-08T04:43:10.529Z,96.60
2022-11-08T04:45:37.299Z,96.70
2022-11-08T04:48:04.017Z,96.70
2022-11-08T04:50:30.719Z,96.70
2022-11-08T04:52:57.441Z,96.70
2022-11-08T04:55:24.165Z,96.70
2022-11-08T04:57:50.987Z,96.70
2022-11-08T05:00:18.341Z,96.70
2022-11-08T05:02:45.511Z,96.80
2022-11-08T05:05:12.365Z,96.70
2022-11-08T05:07:39.184Z,96.90
2022-11-08T05:10:06.241Z,96.80
2022-11-08T05:12:32.987Z,96.70
2022-11-08T05:14:59.797Z,96.90
2022-11-08T05:17:26.458Z,96.70
2022-11-08T05:20:11.928Z,96.90
2022-11-08T05:22:56.962Z,96.70
2022-11-08T05:25:23.701Z,96.50
2022-11-08T05:27:50.375Z,96.90
2022-11-08T05:30:17.087Z,96.70
2022-11-08T05:32:43.860Z,96.80
2022-11-08T05:35:10.560Z,96.80
2022-11-08T05:37:40.149Z,96.60
2022-11-08T05:40:07.232Z,96.70
2022-11-08T05:42:41.125Z,96.80
2022-11-08T05:45:09.587Z,96.70
2022-11-08T05:47:36.818Z,96.50
2022-11-08T05:50:03.649Z,96.80
2022-11-08T05:52:30.406Z,96.60
2022-11-08T05:54:57.145Z,96.60
2022-11-08T05:57:23.846Z,96.60
2022-11-08T05:59:50.903Z,96.70
2022-11-08T06:02:18.339Z,96.80
2022-11-08T06:04:45.451Z,96.70
2022-11-08T06:07:12.344Z,96.50
2022-11-08T06:09:40.144Z,96.80
2022-11-08T06:12:06.901Z,96.40
2022-11-08T06:14:33.694Z,96.70
2022-11-08T06:17:00.380Z,96.40
2022-11-08T06:19:27.072Z,96.70
2022-11-08T06:21:53.884Z,96.80
2022-11-08T06:24:20.550Z,96.60
2022-11-08T06:26:47.244Z,96.90
2022-11-08T06:29:14.021Z,96.50
2022-11-08T06:31:43.227Z,96.60
2022-11-08T06:34:10.483Z,96.70
2022-11-08T06:36:37.264Z,96.70
2022-11-08T06:39:04.235Z,96.50
2022-11-08T06:41:32.217Z,96.80
2022-11-08T06:43:59.210Z,96.70
2022-11-08T06:46:26.055Z,96.90
2022-11-08T06:48:52.796Z,96.70
2022-11-08T06:51:19.888Z,96.70
2022-11-08T06:53:46.636Z,96.70
2022-11-08T06:56:13.384Z,96.60
2022-11-08T06:58:40.245Z,96.60
2022-11-08T07:01:07.693Z,96.60
2022-11-08T07:03:34.617Z,96.60
2022-11-08T07:06:02.689Z,96.60
2022-11-08T07:08:29.516Z,96.60
2022-11-08T07:10:56.349Z,96.80
2022-11-08T07:13:23.072Z,96.70
2022-11-08T07:15:49.856Z,96.60
2022-11-08T07:18:17.982Z,96.60
2022-11-08T07:20:44.889Z,96.40
2022-11-08T07:23:12.026Z,97.00
2022-11-08T07:25:38.904Z,96.50
2022-11-08T07:28:06.643Z,96.60
2022-11-08T07:30:33.851Z,96.50
2022-11-08T07:33:00.664Z,96.60
2022-11-08T07:35:27.894Z,96.40
2022-11-08T07:37:55.172Z,96.40
2022-11-08T07:40:21.944Z,96.50
2022-11-08T07:45:35.487Z,96.60
2022-11-08T07:48:10.681Z,96.50
2022-11-08T07:50:38.119Z,96.40
2022-11-08T07:53:04.871Z,96.50
2022-11-08T07:55:31.578Z,96.40
2022-11-08T07:58:01.394Z,96.70
2022-11-08T08:00:28.881Z,96.60
2022-11-08T08:03:02.326Z,96.20
2022-11-08T08:05:33.516Z,96.20
2022-11-08T08:08:00.372Z,96.20
2022-11-08T08:10:28.137Z,96.50
2022-11-08T08:12:55.634Z,96.70
2022-11-08T08:15:22.360Z,96.50
2022-11-08T08:17:49.042Z,96.40
2022-11-08T08:20:15.851Z,96.40
2022-11-08T08:22:49.209Z,96.50
2022-11-08T08:25:16.405Z,96.40
2022-11-08T08:27:49.397Z,96.40
2022-11-08T08:30:17.499Z,96.50
2022-11-08T08:32:44.987Z,96.20
2022-11-08T08:35:12.990Z,96.50
2022-11-08T08:37:40.095Z,96.30
2022-11-08T08:40:07.864Z,96.20
2022-11-08T08:42:34.696Z,96.50
2022-11-08T08:45:01.815Z,96.20
2022-11-08T08:47:28.958Z,96.70
2022-11-08T08:49:55.649Z,96.70
2022-11-08T08:52:22.474Z,96.50
2022-11-08T08:54:49.155Z,96.40
2022-11-08T08:57:16.102Z,96.70
2022-11-08T09:02:29.677Z,96.50
2022-11-08T09:04:56.831Z,96.70
2022-11-08T09:07:23.768Z,96.80
2022-11-08T09:09:50.533Z,96.90
2022-11-08T09:12:17.422Z,97.00
2022-11-08T09:14:44.134Z,96.70
2022-11-08T09:17:10.821Z,96.90
2022-11-08T09:19:37.544Z,96.60
2022-11-08T09:22:04.310Z,96.40
2022-11-08T09:24:31.058Z,96.90
2022-11-08T09:26:58.889Z,96.80
2022-11-08T09:29:25.566Z,96.70
2022-11-08T09:31:52.266Z,96.80
2022-11-08T09:34:21.631Z,96.80
2022-11-08T09:36:48.825Z,96.70
2022-11-08T09:39:16.462Z,96.70
2022-11-08T09:41:58.683Z,96.60
2022-11-08T09:44:44.074Z,96.80
2022-11-08T09:47:17.628Z,96.80
2022-11-08T09:49:49.152Z,97.10
2022-11-08T09:52:26.272Z,96.70
2022-11-08T09:54:55.728Z,96.80
2022-11-08T09:57:27.497Z,96.70
2022-11-08T10:00:00.395Z,97.00
2022-11-08T10:02:27.942Z,96.70
2022-11-08T10:04:57.150Z,96.90
2022-11-08T10:07:29.318Z,96.70
2022-11-08T10:10:08.303Z,96.70
2022-11-08T10:12:43.995Z,96.90
2022-11-08T10:15:13.802Z,96.70
2022-11-08T10:17:49.840Z,97.00
2022-11-08T10:20:24.074Z,97.00
2022-11-08T10:22:53.623Z,97.10
2022-11-08T10:25:24.099Z,96.90
2022-11-08T10:27:52.716Z,96.80
2022-11-08T10:30:20.863Z,96.90
2022-11-08T10:32:57.062Z,97.00
2022-11-08T10:35:45.673Z,96.90
2022-11-08T10:38:19.548Z,96.90
2022-11-08T10:40:51.572Z,97.00
2022-11-08T10:43:34.645Z,96.90
2022-11-08T10:46:01.402Z,97.00
2022-11-08T10:48:28.251Z,96.60
2022-11-08T10:50:55.639Z,96.70
2022-11-08T10:53:32.539Z,96.90
2022-11-08T10:56:00.522Z,96.50
2022-11-08T10:58:38.037Z,96.90
2022-11-08T11:01:18.982Z,96.40
2022-11-08T11:03:46.286Z,96.70
2022-11-08T11:06:32.832Z,96.70
2022-11-08T11:09:01.143Z,96.70
2022-11-08T11:11:35.812Z,96.80
2022-11-08T11:14:22.146Z,96.80
2022-11-08T11:17:07.604Z,96.60
2022-11-08T11:19:34.704Z,96.80
2022-11-08T11:22:06.101Z,96.70
2022-11-08T11:24:34.459Z,96.90
2022-11-08T11:27:04.076Z,96.90
2022-11-08T11:29:34.651Z,97.00
2022-11-08T11:32:20.062Z,96.90
2022-11-08T11:34:57.249Z,96.70
2022-11-08T11:37:32.971Z,96.90
2022-11-08T11:40:13.061Z,96.70
2022-11-08T11:42:58.419Z,96.60
2022-11-08T11:45:36.744Z,96.90
2022-11-08T11:48:26.786Z,96.70
2022-11-08T11:50:53.570Z,96.90
2022-11-08T11:53:25.456Z,96.70
2022-11-08T11:55:58.310Z,96.70
2022-11-08T11:58:25.010Z,97.00
2022-11-08T12:00:57.881Z,96.90
2022-11-08T12:03:33.488Z,96.50
2022-11-08T12:06:08.056Z,97.00
2022-11-08T12:08:46.923Z,96.90
2022-11-08T12:11:16.494Z,96.70
2022-11-08T12:13:54.077Z,96.70
2022-11-08T12:16:30.443Z,96.70
2022-11-08T12:18:57.123Z,97.20
2022-11-08T12:21:34.665Z,97.00
2022-11-08T12:24:01.368Z,97.00
2022-11-08T12:26:37.137Z,96.80
2022-11-08T12:29:12.655Z,97.10
2022-11-08T12:31:48.836Z,96.80
2022-11-08T12:34:33.322Z,96.80
2022-11-08T12:37:18.761Z,96.90
2022-11-08T12:39:48.576Z,97.30
2022-11-08T12:42:34.801Z,96.90
2022-11-08T12:45:20.531Z,96.90
2022-11-08T12:47:47.326Z,96.80
2022-11-08T12:50:33.714Z,97.00
2022-11-08T12:53:03.472Z,97.10
2022-11-08T12:55:35.608Z,96.70
2022-11-08T12:58:05.571Z,97.00
2022-11-08T13:00:34.030Z,96.80
2022-11-08T13:03:06.804Z,96.90
2022-11-08T13:05:35.237Z,96.80
2022-11-08T13:08:01.903Z,96.60
2022-11-08T13:10:37.468Z,96.90
2022-11-08T13:13:07.294Z,96.70
2022-11-08T13:15:34.154Z,96.90
2022-11-08T13:18:06.797Z,96.90
2022-11-08T13:20:37.805Z,96.80
2022-11-08T13:23:09.037Z,97.00
2022-11-08T13:25:36.233Z,96.90
2022-11-08T13:28:22.917Z,97.00
2022-11-08T13:30:56.820Z,96.70
2022-11-08T13:33:29.317Z,97.00
2022-11-08T13:36:04.401Z,97.00
2022-11-08T13:38:41.650Z,96.80
2022-11-08T13:41:21.803Z,97.10
2022-11-08T13:43:49.306Z,96.70
2022-11-08T13:46:28.653Z,96.80
2022-11-08T13:48:58.251Z,97.10
2022-11-08T13:51:38.253Z,97.00
2022-11-08T13:54:17.068Z,97.20
2022-11-08T13:56:46.890Z,96.70
2022-11-08T13:59:32.086Z,97.10
2022-11-08T14:02:00.791Z,96.90
2022-11-08T14:04:33.011Z,97.20
2022-11-08T14:07:22.236Z,96.70
2022-11-08T14:10:11.086Z,96.80
2022-11-08T14:12:43.903Z,96.80
2022-11-08T14:15:19.737Z,97.30
2022-11-08T14:17:47.774Z,97.10
2022-11-08T14:20:32.858Z,97.00
2022-11-08T14:23:03.359Z,97.00
2022-11-08T14:25:39.527Z,96.60
2022-11-08T14:28:20.571Z,97.10
2022-11-08T14:30:50.803Z,96.80
2022-11-08T14:33:19.550Z,97.00
2022-11-08T14:36:00.227Z,97.00
2022-11-08T14:38:28.011Z,97.20
2022-11-08T14:40:59.522Z,96.90
2022-11-08T14:43:26.764Z,96.90
2022-11-08T14:45:53.849Z,97.10
2022-11-08T14:48:31.101Z,97.00
2022-11-08T14:50:58.901Z,97.00
2022-11-08T14:53:27.306Z,96.80
2022-11-08T14:55:56.068Z,96.70
2022-11-08T14:58:22.760Z,96.80
2022-11-08T15:00:49.835Z,97.00
2022-11-08T15:03:19.457Z,96.70
2022-11-08T15:05:56.259Z,96.80
2022-11-08T15:08:26.335Z,96.90
2022-11-08T15:11:04.090Z,96.90
2022-11-08T15:13:38.984Z,97.10
2022-11-08T15:16:06.736Z,97.00
2022-11-08T15:18:36.387Z,96.90
2022-11-08T15:21:26.481Z,96.80
2022-11-08T15:23:53.841Z,96.70
2022-11-08T15:26:23.423Z,97.10
2022-11-08T15:29:00.294Z,96.80
2022-11-08T15:31:31.899Z,97.10
2022-11-08T15:33:58.741Z,97.10
2022-11-08T15:36:30.673Z,97.00
2022-11-08T15:38:57.423Z,97.00
2022-11-08T15:41:33.223Z,97.00
2022-11-08T15:44:26.073Z,97.10
2022-11-08T15:46:53.855Z,96.90
2022-11-08T15:49:24.565Z,97.20
2022-11-08T15:51:52.677Z,97.10
2022-11-08T15:54:20.170Z,97.10
2022-11-08T15:56:47.983Z,97.10
2022-11-08T15:59:21.050Z,97.20
2022-11-08T16:01:56.567Z,97.20
2022-11-08T16:04:23.728Z,97.10
2022-11-08T16:06:50.754Z,97.00
2022-11-08T16:09:17.607Z,97.30
2022-11-08T16:11:45.506Z,96.90
2022-11-08T16:14:17.499Z,96.80
2022-11-08T16:16:44.334Z,97.10
2022-11-08T16:19:16.751Z,97.00
2022-11-08T16:21:43.457Z,96.70
2022-11-08T16:24:10.129Z,97.20
2022-11-08T16:26:36.892Z,97.00
2022-11-08T16:29:04.523Z,97.20
2022-11-08T16:31:31.428Z,97.20
2022-11-08T16:33:58.435Z,97.10
2022-11-08T16:36:27.630Z,97.10
2022-11-08T16:38:57.954Z,97.40
2022-11-08T16:41:25.577Z,97.30
2022-11-08T16:43:52.354Z,97.10
2022-11-08T16:46:20.092Z,97.10
2022-11-08T16:48:53.074Z,97.20
2022-11-08T16:51:21.493Z,97.10
2022-11-08T16:53:48.826Z,97.20
2022-11-08T16:56:17.591Z,97.30
2022-11-08T16:58:44.424Z,97.10
2022-11-08T17:01:19.098Z,97.10
2022-11-08T17:03:45.889Z,97.00
2022-11-08T17:06:15.763Z,97.30
2022-11-08T17:08:42.611Z,97.50
2022-11-08T17:11:10.320Z,97.40
2022-11-08T17:13:40.463Z,97.20
2022-11-08T17:16:09.122Z,97.40
2022-11-08T17:18:35.836Z,97.10
2022-11-08T17:21:29.959Z,97.10
2022-11-08T17:23:52.720Z,97.20
2022-11-08T17:26:19.395Z,97.30
2022-11-08T17:28:46.124Z,97.20
2022-11-08T17:31:13.930Z,97.10
2022-11-08T17:33:41.039Z,97.30
2022-11-08T17:36:09.041Z,97.50
2022-11-08T17:38:36.520Z,97.30
2022-11-08T17:41:07.786Z,97.30
2022-11-08T17:43:34.958Z,97.30
2022-11-08T17:46:03.302Z,97.40
2022-11-08T17:48:30.547Z,97.30
2022-11-08T17:50:57.332Z,97.10
2022-11-08T17:53:24.359Z,97.20
2022-11-08T17:55:55.149Z,97.20
2022-11-08T17:58:22.190Z,97.10
2022-11-08T18:00:56.383Z,97.10
2022-11-08T18:03:23.740Z,97.20
2022-11-08T18:05:57.727Z,97.40
2022-11-08T18:08:27.049Z,97.40
2022-11-08T18:10:54.370Z,97.40
2022-11-08T18:13:21.988Z,97.30
2022-11-08T18:15:49.876Z,97.10
2022-11-08T18:18:17.151Z,97.40
2022-11-08T18:20:44.128Z,97.60
2022-11-08T18:23:12.312Z,97.40
2022-11-08T18:25:39.160Z,97.30
2022-11-08T18:28:06.018Z,97.30
2022-11-08T18:30:33.061Z,97.30
2022-11-08T18:32:59.787Z,97.40
2022-11-08T18:35:28.164Z,97.40
2022-11-08T18:37:55.660Z,97.10
2022-11-08T18:40:22.615Z,97.40
2022-11-08T18:42:49.579Z,97.30
2022-11-08T18:45:16.410Z,97.30
2022-11-08T18:47:43.207Z,97.40
2022-11-08T18:50:10.176Z,97.40
2022-11-08T18:52:37.401Z,97.30
2022-11-08T18:55:04.936Z,97.50
2022-11-08T18:57:31.681Z,97.40
2022-11-08T19:00:00.976Z,97.30
2022-11-08T19:02:28.265Z,97.40
2022-11-08T19:04:55.170Z,97.30
2022-11-08T19:07:22.189Z,97.30
2022-11-08T19:09:48.900Z,97.20
2022-11-08T19:12:15.689Z,97.20
2022-11-08T19:14:42.374Z,97.20
2022-11-08T19:17:09.097Z,97.40
2022-11-08T19:19:37.185Z,97.50
2022-11-08T19:22:04.153Z,97.10
2022-11-08T19:24:30.875Z,97.30
2022-11-08T19:26:57.728Z,97.10
2022-11-08T19:29:24.404Z,97.40
2022-11-08T19:31:51.073Z,97.00
2022-11-08T19:34:17.898Z,97.30
2022-11-08T19:36:44.751Z,97.30
2022-11-08T19:39:14.555Z,97.50
2022-11-08T19:41:41.787Z,97.30
2022-11-08T19:44:09.859Z,97.20
2022-11-08T19:46:38.899Z,97.30
2022-11-08T19:49:05.688Z,97.10
2022-11-08T19:51:34.061Z,97.50
2022-11-08T19:54:05.159Z,97.40
2022-11-08T19:57:02.649Z,97.30
2022-11-08T19:59:19.208Z,97.50
2022-11-08T20:01:46.921Z,97.50
2022-11-08T20:04:14.831Z,97.50
2022-11-08T20:06:41.867Z,97.40
2022-11-08T20:09:09.588Z,97.30
2022-11-08T20:11:37.357Z,97.40
2022-11-08T20:14:05.399Z,97.70
2022-11-08T20:16:38.004Z,97.40
2022-11-08T20:19:06.417Z,97.20
2022-11-08T20:21:33.407Z,97.10
2022-11-08T20:24:00.177Z,97.40
2022-11-08T20:26:27.402Z,97.50
2022-11-08T20:28:57.473Z,97.40
2022-11-08T20:31:25.176Z,97.10
2022-11-08T20:33:54.555Z,97.40
2022-11-08T20:36:23.236Z,97.40
2022-11-08T20:38:50.581Z,97.40
2022-11-08T20:41:18.068Z,97.60
2022-11-08T20:43:45.743Z,97.30
2022-11-08T20:46:13.839Z,97.50
2022-11-08T20:48:42.731Z,97.50
2022-11-08T20:51:11.710Z,97.60
2022-11-08T20:53:38.441Z,97.10
2022-11-08T20:56:14.649Z,97.20
2022-11-08T20:58:42.081Z,97.10
2022-11-08T21:01:09.906Z,97.40
2022-11-08T21:03:36.804Z,97.30
2022-11-08T21:06:05.109Z,97.30
2022-11-08T21:11:19.405Z,97.10
2022-11-08T21:13:46.621Z,97.40
2022-11-08T21:16:29.362Z,97.70
2022-11-08T21:18:58.536Z,97.70
2022-11-08T21:21:25.564Z,97.30
2022-11-08T21:23:53.660Z,97.20
2022-11-08T21:26:20.739Z,97.40
2022-11-08T21:28:47.644Z,97.30
2022-11-08T21:31:14.385Z,97.30
2022-11-08T21:33:41.432Z,97.50
2022-11-08T21:36:08.784Z,97.40
2022-11-08T21:38:39.334Z,97.40
2022-11-08T21:41:07.099Z,97.20
2022-11-08T21:43:37.501Z,97.50
2022-11-08T21:46:14.208Z,97.20
2022-11-08T21:48:41.134Z,97.30
2022-11-08T21:51:07.901Z,97.50
2022-11-08T21:53:36.053Z,97.40
2022-11-08T21:56:04.775Z,97.50
2022-11-08T21:58:31.477Z,97.30
2022-11-08T22:00:58.212Z,97.50
2022-11-08T22:03:24.929Z,97.40
2022-11-08T22:05:51.664Z,97.20
2022-11-08T22:08:18.661Z,97.50
2022-11-08T22:10:46.454Z,97.10
2022-11-08T22:13:13.164Z,97.00
2022-11-08T22:15:39.868Z,97.50
2022-11-08T22:18:36.334Z,97.50
2022-11-08T22:21:11.749Z,97.10
2022-11-08T22:23:38.435Z,97.50
2022-11-08T22:26:05.214Z,97.30
2022-11-08T22:28:32.338Z,96.90
2022-11-08T22:30:59.032Z,97.30
2022-11-08T22:33:25.738Z,97.30
2022-11-08T22:35:52.492Z,97.30
2022-11-08T22:38:19.619Z,97.30
2022-11-08T22:40:47.004Z,97.00
2022-11-08T22:43:13.941Z,97.20
2022-11-08T22:45:41.606Z,97.30
2022-11-08T22:48:09.074Z,97.50
2022-11-08T22:50:35.930Z,97.30
2022-11-08T22:53:02.631Z,97.40
2022-11-08T22:55:29.341Z,97.00
2022-11-08T22:57:56.124Z,97.10
2022-11-08T23:00:22.836Z,97.40
2022-11-08T23:02:49.665Z,97.40
2022-11-08T23:05:16.393Z,97.30
2022-11-08T23:07:43.108Z,97.70
2022-11-08T23:10:09.941Z,97.60
2022-11-08T23:12:55.243Z,97.40
2022-11-08T23:15:40.438Z,97.50
2022-11-08T23:18:07.156Z,97.40
2022-11-08T23:20:52.277Z,97.40
2022-11-08T23:23:37.430Z,97.30
2022-11-08T23:26:04.206Z,97.50
2022-11-08T23:28:49.521Z,97.50
2022-11-08T23:31:34.685Z,97.40
2022-11-08T23:34:01.867Z,97.30
2022-11-08T23:36:28.579Z,97.70
2022-11-08T23:38:55.867Z,97.40
2022-11-08T23:41:41.166Z,97.40
2022-11-08T23:44:25.919Z,97.40
2022-11-08T23:46:53.209Z,97.20
2022-11-08T23:49:19.916Z,97.20
2022-11-08T23:51:46.633Z,97.50
2022-11-08T23:54:13.689Z,97.30
2022-11-08T23:56:40.617Z,97.70
2022-11-08T23:59:07.594Z,97.50
